RYR54AM EBCI-LIMC
Flight info
| Callsign | RYR54AM |
|---|---|
| Flight time | 1h 12m |
| Altitude | 35000 |
| Route | RITAX M624 DIK N852 GTQ/N0315F130 R7 LUPEN Y711 NATOR N850 TRA/N0437F350 N850 ODINA DCT RIXUV |
| Aircraft | B738/M-SADE3FGHIJ7LP2RWXY/SB1D1G1 |
Departure
| Time | 2026-05-08 17:12 |
|---|---|
| Airport | Brussels South Charleroi Airport (EBCI) |
Arrival
| Time | 2026-05-08 18:24 |
|---|---|
| Airport | Milan Malpensa International Airport (LIMC) |
| Time | Latitude | Longitude | Altitude | Speed | Heading |
|---|---|---|---|---|---|
| 2026-05-08 16:50 | 50.46837 | 4.46988 | 584 ft | 0 kts | 336° |
| 2026-05-08 17:00 | 50.46839 | 4.46987 | 584 ft | 0 kts | 336° |
| 2026-05-08 17:00 | 50.46839 | 4.46986 | 584 ft | 0 kts | 336° |
| 2026-05-08 17:02 | 50.46826 | 4.46996 | 584 ft | 4 kts | 328° |
| 2026-05-08 17:03 | 50.46807 | 4.47023 | 584 ft | 4 kts | 297° |
| 2026-05-08 17:03 | 50.46801 | 4.47060 | 584 ft | 4 kts | 255° |
| 2026-05-08 17:03 | 50.46804 | 4.47074 | 584 ft | 0 kts | 245° |
| 2026-05-08 17:03 | 50.46806 | 4.47083 | 584 ft | 0 kts | 250° |
| 2026-05-08 17:07 | 50.46805 | 4.47079 | 584 ft | 3 kts | 248° |
| 2026-05-08 17:07 | 50.46782 | 4.47001 | 584 ft | 13 kts | 245° |
| 2026-05-08 17:07 | 50.46734 | 4.46837 | 586 ft | 18 kts | 245° |
| 2026-05-08 17:07 | 50.46682 | 4.46662 | 587 ft | 17 kts | 245° |
| 2026-05-08 17:08 | 50.46617 | 4.46531 | 589 ft | 13 kts | 176° |
| 2026-05-08 17:08 | 50.46536 | 4.46545 | 589 ft | 13 kts | 223° |
| 2026-05-08 17:08 | 50.46486 | 4.46386 | 588 ft | 21 kts | 244° |
| 2026-05-08 17:08 | 50.46422 | 4.46164 | 590 ft | 23 kts | 246° |
| 2026-05-08 17:09 | 50.46356 | 4.45941 | 596 ft | 23 kts | 245° |
| 2026-05-08 17:09 | 50.46285 | 4.45699 | 596 ft | 24 kts | 246° |
| 2026-05-08 17:09 | 50.46215 | 4.45457 | 598 ft | 27 kts | 245° |
| 2026-05-08 17:09 | 50.46138 | 4.45190 | 598 ft | 26 kts | 245° |
| 2026-05-08 17:10 | 50.46065 | 4.44938 | 596 ft | 25 kts | 245° |
| 2026-05-08 17:10 | 50.45976 | 4.44767 | 595 ft | 17 kts | 188° |
| 2026-05-08 17:10 | 50.45876 | 4.44808 | 597 ft | 14 kts | 175° |
| 2026-05-08 17:10 | 50.45851 | 4.44836 | 596 ft | 3 kts | 75° |
| 2026-05-08 17:11 | 50.45876 | 4.44918 | 593 ft | 22 kts | 64° |
| 2026-05-08 17:11 | 50.46043 | 4.45486 | 592 ft | 94 kts | 65° |
| 2026-05-08 17:11 | 50.46404 | 4.46726 | 593 ft | 154 kts | 65° |
| 2026-05-08 17:11 | 50.46879 | 4.48367 | 1120 ft | 163 kts | 64° |
| 2026-05-08 17:12 | 50.47514 | 4.49847 | 1762 ft | 174 kts | 38° |
| 2026-05-08 17:12 | 50.48634 | 4.50576 | 2139 ft | 196 kts | 19° |
| 2026-05-08 17:12 | 50.49771 | 4.51794 | 2658 ft | 202 kts | 55° |
| 2026-05-08 17:12 | 50.50547 | 4.53703 | 3207 ft | 213 kts | 59° |
| 2026-05-08 17:13 | 50.51393 | 4.55733 | 3662 ft | 234 kts | 56° |
| 2026-05-08 17:13 | 50.52401 | 4.57976 | 3940 ft | 265 kts | 55° |
| 2026-05-08 17:13 | 50.53546 | 4.60401 | 4382 ft | 288 kts | 54° |
| 2026-05-08 17:13 | 50.54825 | 4.63044 | 4538 ft | 320 kts | 53° |
| 2026-05-08 17:14 | 50.56224 | 4.65930 | 5048 ft | 334 kts | 54° |
| 2026-05-08 17:14 | 50.57284 | 4.69185 | 5796 ft | 342 kts | 76° |
| 2026-05-08 17:14 | 50.57383 | 4.72965 | 6406 ft | 349 kts | 103° |
| 2026-05-08 17:14 | 50.56447 | 4.76435 | 7438 ft | 345 kts | 124° |
| 2026-05-08 17:15 | 50.54949 | 4.79427 | 8149 ft | 352 kts | 130° |
| 2026-05-08 17:15 | 50.53367 | 4.82400 | 8916 ft | 357 kts | 131° |
| 2026-05-08 17:15 | 50.51753 | 4.85408 | 9695 ft | 362 kts | 131° |
| 2026-05-08 17:15 | 50.50131 | 4.88472 | 10405 ft | 367 kts | 131° |
| 2026-05-08 17:16 | 50.48511 | 4.91584 | 11154 ft | 370 kts | 130° |
| 2026-05-08 17:16 | 50.46889 | 4.94743 | 11930 ft | 372 kts | 130° |
| 2026-05-08 17:16 | 50.45262 | 4.97939 | 12677 ft | 376 kts | 129° |
| 2026-05-08 17:16 | 50.43652 | 5.01120 | 13412 ft | 379 kts | 129° |
| 2026-05-08 17:17 | 50.42009 | 5.04372 | 14214 ft | 378 kts | 129° |
| 2026-05-08 17:17 | 50.40398 | 5.07565 | 15129 ft | 376 kts | 129° |
| 2026-05-08 17:17 | 50.38739 | 5.10849 | 15383 ft | 391 kts | 129° |
| 2026-05-08 17:17 | 50.37033 | 5.14222 | 15848 ft | 399 kts | 129° |
| 2026-05-08 17:18 | 50.35300 | 5.17645 | 16482 ft | 402 kts | 129° |
| 2026-05-08 17:18 | 50.33558 | 5.21083 | 17113 ft | 405 kts | 129° |
| 2026-05-08 17:18 | 50.31803 | 5.24513 | 17594 ft | 401 kts | 130° |
| 2026-05-08 17:18 | 50.30038 | 5.27896 | 17577 ft | 401 kts | 130° |
| 2026-05-08 17:19 | 50.28282 | 5.31285 | 17589 ft | 401 kts | 130° |
| 2026-05-08 17:19 | 50.26535 | 5.34683 | 17599 ft | 401 kts | 130° |
| 2026-05-08 17:19 | 50.24799 | 5.38076 | 17603 ft | 401 kts | 130° |
| 2026-05-08 17:19 | 50.23041 | 5.41462 | 17502 ft | 403 kts | 131° |
| 2026-05-08 17:20 | 50.21232 | 5.44803 | 17426 ft | 405 kts | 132° |
| 2026-05-08 17:20 | 50.19390 | 5.48151 | 17304 ft | 406 kts | 131° |
| 2026-05-08 17:20 | 50.17592 | 5.51567 | 17184 ft | 408 kts | 130° |
| 2026-05-08 17:20 | 50.15852 | 5.55099 | 17291 ft | 416 kts | 128° |
| 2026-05-08 17:21 | 50.14132 | 5.58716 | 18041 ft | 414 kts | 128° |
| 2026-05-08 17:21 | 50.12398 | 5.62290 | 18650 ft | 415 kts | 129° |
| 2026-05-08 17:21 | 50.10621 | 5.65860 | 19167 ft | 419 kts | 129° |
| 2026-05-08 17:21 | 50.08806 | 5.69433 | 19686 ft | 422 kts | 130° |
| 2026-05-08 17:22 | 50.06967 | 5.73010 | 20213 ft | 424 kts | 130° |
| 2026-05-08 17:22 | 50.05108 | 5.76603 | 20728 ft | 427 kts | 130° |
| 2026-05-08 17:22 | 50.03237 | 5.80207 | 21228 ft | 430 kts | 130° |
| 2026-05-08 17:22 | 50.01349 | 5.83838 | 21719 ft | 433 kts | 130° |
| 2026-05-08 17:23 | 49.99445 | 5.87497 | 22209 ft | 436 kts | 130° |
| 2026-05-08 17:23 | 49.97586 | 5.91066 | 22673 ft | 438 kts | 130° |
| 2026-05-08 17:23 | 49.95716 | 5.94660 | 22793 ft | 418 kts | 130° |
| 2026-05-08 17:23 | 49.93925 | 5.98096 | 22761 ft | 400 kts | 130° |
| 2026-05-08 17:24 | 49.92160 | 6.01466 | 22823 ft | 408 kts | 130° |
| 2026-05-08 17:24 | 49.90338 | 6.04946 | 22932 ft | 421 kts | 130° |
| 2026-05-08 17:24 | 49.88458 | 6.08522 | 23033 ft | 434 kts | 131° |
| 2026-05-08 17:24 | 49.86310 | 6.11860 | 23194 ft | 441 kts | 142° |
| 2026-05-08 17:25 | 49.83795 | 6.14586 | 23611 ft | 442 kts | 152° |
| 2026-05-08 17:25 | 49.81024 | 6.16650 | 24037 ft | 441 kts | 158° |
| 2026-05-08 17:25 | 49.78198 | 6.18497 | 24462 ft | 442 kts | 159° |
| 2026-05-08 17:25 | 49.75349 | 6.20352 | 24817 ft | 444 kts | 159° |
| 2026-05-08 17:26 | 49.72501 | 6.22235 | 25126 ft | 447 kts | 158° |
| 2026-05-08 17:26 | 49.69681 | 6.24129 | 25423 ft | 450 kts | 158° |
| 2026-05-08 17:26 | 49.66802 | 6.26078 | 25763 ft | 452 kts | 158° |
| 2026-05-08 17:26 | 49.63921 | 6.28028 | 26172 ft | 453 kts | 158° |
| 2026-05-08 17:27 | 49.61015 | 6.29955 | 26473 ft | 455 kts | 159° |
| 2026-05-08 17:27 | 49.58077 | 6.31848 | 26784 ft | 458 kts | 159° |
| 2026-05-08 17:27 | 49.55133 | 6.33729 | 27125 ft | 459 kts | 159° |
| 2026-05-08 17:27 | 49.52174 | 6.35622 | 27439 ft | 461 kts | 159° |
| 2026-05-08 17:28 | 49.49202 | 6.37531 | 27735 ft | 464 kts | 159° |
| 2026-05-08 17:28 | 49.46220 | 6.39451 | 28067 ft | 465 kts | 159° |
| 2026-05-08 17:28 | 49.43275 | 6.41512 | 28513 ft | 464 kts | 156° |
| 2026-05-08 17:28 | 49.40374 | 6.43664 | 29018 ft | 462 kts | 156° |
| 2026-05-08 17:29 | 49.37501 | 6.45800 | 29493 ft | 460 kts | 156° |
| 2026-05-08 17:29 | 49.34613 | 6.47861 | 29900 ft | 459 kts | 158° |
| 2026-05-08 17:29 | 49.31708 | 6.49801 | 30187 ft | 461 kts | 159° |
| 2026-05-08 17:29 | 49.28746 | 6.51730 | 30424 ft | 463 kts | 159° |
| 2026-05-08 17:30 | 49.25784 | 6.53669 | 30721 ft | 463 kts | 159° |
| 2026-05-08 17:30 | 49.22824 | 6.55628 | 31050 ft | 463 kts | 159° |
| 2026-05-08 17:30 | 49.19873 | 6.57591 | 31329 ft | 463 kts | 159° |
| 2026-05-08 17:30 | 49.16907 | 6.59594 | 31588 ft | 465 kts | 155° |
| 2026-05-08 17:31 | 49.14192 | 6.62308 | 31835 ft | 471 kts | 143° |
| 2026-05-08 17:31 | 49.11739 | 6.65611 | 32187 ft | 471 kts | 140° |
| 2026-05-08 17:31 | 49.09368 | 6.69048 | 32436 ft | 473 kts | 139° |
| 2026-05-08 17:31 | 49.07019 | 6.72540 | 32518 ft | 478 kts | 138° |
| 2026-05-08 17:32 | 49.04636 | 6.76105 | 32749 ft | 479 kts | 138° |
| 2026-05-08 17:32 | 49.02266 | 6.79662 | 33102 ft | 477 kts | 138° |
| 2026-05-08 17:32 | 48.99902 | 6.83217 | 33423 ft | 477 kts | 138° |
| 2026-05-08 17:32 | 48.97543 | 6.86770 | 33661 ft | 478 kts | 138° |
| 2026-05-08 17:33 | 48.95174 | 6.90347 | 33885 ft | 480 kts | 138° |
| 2026-05-08 17:33 | 48.92805 | 6.93934 | 34136 ft | 480 kts | 138° |
| 2026-05-08 17:33 | 48.90470 | 6.97472 | 34389 ft | 479 kts | 138° |
| 2026-05-08 17:33 | 48.88081 | 7.01090 | 34658 ft | 478 kts | 138° |
| 2026-05-08 17:34 | 48.87056 | 7.02641 | 34769 ft | 478 kts | 138° |
| 2026-05-08 17:34 | 48.83839 | 7.07015 | 34861 ft | 476 kts | 139° |
| 2026-05-08 17:35 | 48.79139 | 7.14225 | 35138 ft | 482 kts | 136° |
| 2026-05-08 17:35 | 48.76835 | 7.17853 | 35455 ft | 479 kts | 137° |
| 2026-05-08 17:35 | 48.74514 | 7.21455 | 35747 ft | 477 kts | 137° |
| 2026-05-08 17:36 | 48.72174 | 7.25022 | 35966 ft | 477 kts | 137° |
| 2026-05-08 17:36 | 48.69820 | 7.28561 | 36159 ft | 477 kts | 138° |
| 2026-05-08 17:36 | 48.67461 | 7.32082 | 36402 ft | 477 kts | 138° |
| 2026-05-08 17:36 | 48.65094 | 7.35603 | 36635 ft | 476 kts | 138° |
| 2026-05-08 17:37 | 48.62765 | 7.39065 | 36828 ft | 476 kts | 138° |
| 2026-05-08 17:37 | 48.61167 | 7.41439 | 36985 ft | 476 kts | 138° |
| 2026-05-08 17:37 | 48.55666 | 7.49605 | 37034 ft | 477 kts | 138° |
| 2026-05-08 17:38 | 48.50966 | 7.56636 | 37018 ft | 475 kts | 135° |
| 2026-05-08 17:38 | 48.47721 | 7.63388 | 37032 ft | 475 kts | 124° |
| 2026-05-08 17:39 | 48.44200 | 7.71784 | 37019 ft | 473 kts | 125° |
| 2026-05-08 17:39 | 48.40498 | 7.79955 | 37019 ft | 472 kts | 128° |
| 2026-05-08 17:40 | 48.36707 | 7.88020 | 37012 ft | 472 kts | 127° |
| 2026-05-08 17:40 | 48.33064 | 7.96187 | 37026 ft | 475 kts | 125° |
| 2026-05-08 17:41 | 48.29449 | 8.04519 | 37020 ft | 478 kts | 125° |
| 2026-05-08 17:41 | 48.25778 | 8.12876 | 37047 ft | 480 kts | 126° |
| 2026-05-08 17:42 | 48.22032 | 8.21201 | 37022 ft | 482 kts | 127° |
| 2026-05-08 17:42 | 48.17914 | 8.29080 | 37005 ft | 478 kts | 144° |
| 2026-05-08 17:43 | 48.15158 | 8.31811 | 37031 ft | 472 kts | 157° |
| 2026-05-08 17:43 | 48.12113 | 8.33509 | 37009 ft | 465 kts | 172° |
| 2026-05-08 17:43 | 48.05836 | 8.34995 | 37014 ft | 463 kts | 175° |
| 2026-05-08 17:44 | 47.99455 | 8.36390 | 37019 ft | 464 kts | 175° |
| 2026-05-08 17:44 | 47.93060 | 8.37913 | 37018 ft | 465 kts | 174° |
| 2026-05-08 17:45 | 47.86682 | 8.39462 | 37021 ft | 465 kts | 175° |
| 2026-05-08 17:45 | 47.80292 | 8.40994 | 37020 ft | 465 kts | 175° |
| 2026-05-08 17:46 | 47.73945 | 8.42507 | 37014 ft | 465 kts | 175° |
| 2026-05-08 17:46 | 47.67559 | 8.43978 | 36996 ft | 463 kts | 177° |
| 2026-05-08 17:47 | 47.61160 | 8.44965 | 37001 ft | 461 kts | 179° |
| 2026-05-08 17:47 | 47.55842 | 8.45675 | 36996 ft | 461 kts | 179° |
| 2026-05-08 17:48 | 47.48371 | 8.46728 | 36973 ft | 461 kts | 179° |
| 2026-05-08 17:48 | 47.41996 | 8.47663 | 36990 ft | 461 kts | 179° |
| 2026-05-08 17:49 | 47.35610 | 8.48601 | 36995 ft | 461 kts | 179° |
| 2026-05-08 17:49 | 47.29215 | 8.49534 | 37013 ft | 462 kts | 179° |
| 2026-05-08 17:50 | 47.22799 | 8.50470 | 37000 ft | 464 kts | 179° |
| 2026-05-08 17:50 | 47.16368 | 8.51407 | 36993 ft | 464 kts | 179° |
| 2026-05-08 17:51 | 47.09931 | 8.52342 | 36852 ft | 468 kts | 179° |
| 2026-05-08 17:51 | 47.06668 | 8.52813 | 36317 ft | 471 kts | 179° |
| 2026-05-08 17:51 | 47.03450 | 8.53281 | 35719 ft | 470 kts | 179° |
| 2026-05-08 17:52 | 47.00209 | 8.53749 | 34850 ft | 476 kts | 180° |
| 2026-05-08 17:52 | 46.96884 | 8.54227 | 34160 ft | 477 kts | 180° |
| 2026-05-08 17:52 | 46.90325 | 8.55171 | 32670 ft | 479 kts | 180° |
| 2026-05-08 17:53 | 46.87011 | 8.55647 | 31977 ft | 478 kts | 180° |
| 2026-05-08 17:53 | 46.83704 | 8.56121 | 31182 ft | 478 kts | 179° |
| 2026-05-08 17:53 | 46.80395 | 8.56600 | 30495 ft | 477 kts | 179° |
| 2026-05-08 17:53 | 46.77089 | 8.57078 | 29692 ft | 478 kts | 179° |
| 2026-05-08 17:54 | 46.73771 | 8.57551 | 28769 ft | 479 kts | 178° |
| 2026-05-08 17:54 | 46.70445 | 8.58024 | 27985 ft | 478 kts | 178° |
| 2026-05-08 17:54 | 46.67182 | 8.58491 | 27399 ft | 470 kts | 178° |
| 2026-05-08 17:54 | 46.63930 | 8.58962 | 26818 ft | 464 kts | 178° |
| 2026-05-08 17:55 | 46.60728 | 8.59415 | 26222 ft | 460 kts | 178° |
| 2026-05-08 17:55 | 46.57563 | 8.59861 | 25768 ft | 453 kts | 178° |
| 2026-05-08 17:55 | 46.54440 | 8.60304 | 25201 ft | 449 kts | 178° |
| 2026-05-08 17:55 | 46.51340 | 8.60743 | 24643 ft | 445 kts | 177° |
| 2026-05-08 17:56 | 46.48274 | 8.61176 | 24076 ft | 441 kts | 177° |
| 2026-05-08 17:56 | 46.45237 | 8.61606 | 23485 ft | 436 kts | 177° |
| 2026-05-08 17:56 | 46.42232 | 8.62031 | 22918 ft | 430 kts | 177° |
| 2026-05-08 17:56 | 46.39283 | 8.62448 | 22373 ft | 424 kts | 176° |
| 2026-05-08 17:57 | 46.36367 | 8.62860 | 21862 ft | 418 kts | 176° |
| 2026-05-08 17:57 | 46.33489 | 8.63266 | 21296 ft | 415 kts | 176° |
| 2026-05-08 17:57 | 46.30623 | 8.63668 | 20727 ft | 412 kts | 176° |
| 2026-05-08 17:57 | 46.27814 | 8.64062 | 20172 ft | 409 kts | 176° |
| 2026-05-08 17:58 | 46.24961 | 8.64462 | 19631 ft | 406 kts | 176° |
| 2026-05-08 17:58 | 46.22184 | 8.64852 | 19091 ft | 404 kts | 176° |
| 2026-05-08 17:58 | 46.19398 | 8.65241 | 18544 ft | 402 kts | 176° |
| 2026-05-08 17:58 | 46.16625 | 8.65630 | 17948 ft | 399 kts | 176° |
| 2026-05-08 17:59 | 46.13872 | 8.66015 | 17366 ft | 397 kts | 175° |
| 2026-05-08 17:59 | 46.11088 | 8.66336 | 16778 ft | 394 kts | 180° |
| 2026-05-08 17:59 | 46.08414 | 8.66075 | 16273 ft | 388 kts | 191° |
| 2026-05-08 17:59 | 46.05818 | 8.65354 | 16079 ft | 376 kts | 192° |
| 2026-05-08 18:00 | 46.03285 | 8.64629 | 15903 ft | 365 kts | 192° |
| 2026-05-08 18:00 | 45.98440 | 8.63291 | 15608 ft | 344 kts | 192° |
| 2026-05-08 18:00 | 45.96124 | 8.62671 | 15471 ft | 335 kts | 192° |
| 2026-05-08 18:01 | 45.93856 | 8.62068 | 15330 ft | 326 kts | 192° |
| 2026-05-08 18:01 | 45.91652 | 8.61522 | 15190 ft | 318 kts | 186° |
| 2026-05-08 18:01 | 45.89496 | 8.61877 | 15013 ft | 314 kts | 162° |
| 2026-05-08 18:01 | 45.87582 | 8.63373 | 14714 ft | 315 kts | 143° |
| 2026-05-08 18:02 | 45.85882 | 8.65337 | 14421 ft | 314 kts | 141° |
| 2026-05-08 18:02 | 45.84769 | 8.66661 | 14218 ft | 313 kts | 141° |
| 2026-05-08 18:02 | 45.82525 | 8.69327 | 13790 ft | 313 kts | 141° |
| 2026-05-08 18:02 | 45.80844 | 8.71296 | 13449 ft | 312 kts | 141° |
| 2026-05-08 18:03 | 45.79162 | 8.73250 | 13120 ft | 311 kts | 142° |
| 2026-05-08 18:03 | 45.77484 | 8.75190 | 12798 ft | 309 kts | 142° |
| 2026-05-08 18:03 | 45.75782 | 8.77053 | 12484 ft | 307 kts | 148° |
| 2026-05-08 18:03 | 45.73925 | 8.78556 | 12187 ft | 305 kts | 153° |
| 2026-05-08 18:04 | 45.72075 | 8.79906 | 11889 ft | 304 kts | 154° |
| 2026-05-08 18:04 | 45.70185 | 8.81283 | 11573 ft | 302 kts | 153° |
| 2026-05-08 18:04 | 45.68325 | 8.82669 | 11268 ft | 301 kts | 153° |
| 2026-05-08 18:04 | 45.66481 | 8.84069 | 11061 ft | 296 kts | 152° |
| 2026-05-08 18:05 | 45.64687 | 8.85442 | 10930 ft | 289 kts | 152° |
| 2026-05-08 18:05 | 45.62942 | 8.86780 | 10844 ft | 281 kts | 152° |
| 2026-05-08 18:05 | 45.61201 | 8.87948 | 10628 ft | 277 kts | 165° |
| 2026-05-08 18:05 | 45.59314 | 8.88478 | 10379 ft | 275 kts | 171° |
| 2026-05-08 18:06 | 45.57437 | 8.88925 | 10224 ft | 270 kts | 170° |
| 2026-05-08 18:06 | 45.55610 | 8.89390 | 10107 ft | 264 kts | 170° |
| 2026-05-08 18:06 | 45.53811 | 8.89867 | 9872 ft | 263 kts | 169° |
| 2026-05-08 18:06 | 45.52011 | 8.90353 | 9461 ft | 267 kts | 169° |
| 2026-05-08 18:07 | 45.50178 | 8.90817 | 9144 ft | 267 kts | 172° |
| 2026-05-08 18:07 | 45.48312 | 8.91207 | 8659 ft | 274 kts | 171° |
| 2026-05-08 18:07 | 45.46441 | 8.91728 | 8299 ft | 275 kts | 168° |
| 2026-05-08 18:07 | 45.44560 | 8.92294 | 7936 ft | 277 kts | 168° |
| 2026-05-08 18:08 | 45.42670 | 8.92834 | 7573 ft | 278 kts | 171° |
| 2026-05-08 18:08 | 45.40760 | 8.92667 | 7169 ft | 281 kts | 199° |
| 2026-05-08 18:08 | 45.39127 | 8.91173 | 6769 ft | 285 kts | 227° |
| 2026-05-08 18:08 | 45.38121 | 8.88744 | 6355 ft | 289 kts | 251° |
| 2026-05-08 18:09 | 45.37673 | 8.85973 | 5939 ft | 286 kts | 262° |
| 2026-05-08 18:09 | 45.37886 | 8.83212 | 5526 ft | 281 kts | 292° |
| 2026-05-08 18:09 | 45.38959 | 8.80958 | 5179 ft | 274 kts | 317° |
| 2026-05-08 18:09 | 45.40519 | 8.79486 | 4824 ft | 267 kts | 338° |
| 2026-05-08 18:10 | 45.42273 | 8.78904 | 4585 ft | 256 kts | 353° |
| 2026-05-08 18:10 | 45.43998 | 8.78567 | 4514 ft | 240 kts | 351° |
| 2026-05-08 18:10 | 45.45592 | 8.78159 | 4204 ft | 231 kts | 349° |
| 2026-05-08 18:10 | 45.47143 | 8.77740 | 3839 ft | 224 kts | 349° |
| 2026-05-08 18:11 | 45.48681 | 8.77319 | 3372 ft | 221 kts | 349° |
| 2026-05-08 18:11 | 45.50157 | 8.76928 | 3003 ft | 215 kts | 349° |
| 2026-05-08 18:11 | 45.51593 | 8.76535 | 2707 ft | 205 kts | 349° |
| 2026-05-08 18:11 | 45.52957 | 8.76155 | 2450 ft | 195 kts | 349° |
| 2026-05-08 18:12 | 45.54262 | 8.75791 | 2190 ft | 187 kts | 348° |
| 2026-05-08 18:12 | 45.55527 | 8.75439 | 1937 ft | 183 kts | 348° |
| 2026-05-08 18:12 | 45.56740 | 8.75102 | 1694 ft | 172 kts | 349° |
| 2026-05-08 18:12 | 45.57883 | 8.74778 | 1478 ft | 160 kts | 348° |
| 2026-05-08 18:13 | 45.58959 | 8.74472 | 1266 ft | 155 kts | 349° |
| 2026-05-08 18:13 | 45.60013 | 8.74194 | 1076 ft | 153 kts | 349° |
| 2026-05-08 18:13 | 45.61055 | 8.73894 | 905 ft | 153 kts | 348° |
| 2026-05-08 18:13 | 45.62137 | 8.73601 | 939 ft | 165 kts | 349° |
| 2026-05-08 18:14 | 45.63277 | 8.73300 | 1474 ft | 181 kts | 349° |
| 2026-05-08 18:14 | 45.64579 | 8.73228 | 2041 ft | 201 kts | 18° |
| 2026-05-08 18:14 | 45.65746 | 8.74378 | 2656 ft | 213 kts | 53° |
| 2026-05-08 18:14 | 45.66406 | 8.76305 | 3284 ft | 218 kts | 67° |
| 2026-05-08 18:15 | 45.66990 | 8.78303 | 3664 ft | 216 kts | 68° |
| 2026-05-08 18:15 | 45.67551 | 8.80252 | 3898 ft | 222 kts | 68° |
| 2026-05-08 18:15 | 45.68151 | 8.82341 | 3974 ft | 232 kts | 68° |
| 2026-05-08 18:15 | 45.68726 | 8.84497 | 3957 ft | 231 kts | 80° |
| 2026-05-08 18:16 | 45.68548 | 8.86700 | 3996 ft | 222 kts | 111° |
| 2026-05-08 18:16 | 45.68008 | 8.88762 | 3990 ft | 221 kts | 110° |
| 2026-05-08 18:16 | 45.67290 | 8.90679 | 3982 ft | 223 kts | 135° |
| 2026-05-08 18:16 | 45.65948 | 8.91794 | 4009 ft | 230 kts | 166° |
| 2026-05-08 18:17 | 45.64339 | 8.92089 | 3997 ft | 236 kts | 181° |
| 2026-05-08 18:17 | 45.62707 | 8.91980 | 3994 ft | 235 kts | 183° |
| 2026-05-08 18:17 | 45.61081 | 8.91850 | 3989 ft | 234 kts | 183° |
| 2026-05-08 18:17 | 45.59463 | 8.91710 | 3983 ft | 233 kts | 183° |
| 2026-05-08 18:18 | 45.57840 | 8.91567 | 3987 ft | 238 kts | 183° |
| 2026-05-08 18:18 | 45.56082 | 8.91411 | 3786 ft | 263 kts | 183° |
| 2026-05-08 18:18 | 45.54233 | 8.91248 | 3599 ft | 267 kts | 183° |
| 2026-05-08 18:18 | 45.52396 | 8.91087 | 3499 ft | 262 kts | 183° |
| 2026-05-08 18:19 | 45.50635 | 8.90793 | 3375 ft | 254 kts | 193° |
| 2026-05-08 18:19 | 45.48974 | 8.90198 | 3266 ft | 246 kts | 199° |
| 2026-05-08 18:19 | 45.47568 | 8.88928 | 3130 ft | 239 kts | 230° |
| 2026-05-08 18:19 | 45.46853 | 8.86872 | 3043 ft | 228 kts | 258° |
| 2026-05-08 18:20 | 45.46617 | 8.84723 | 3012 ft | 212 kts | 264° |
| 2026-05-08 18:20 | 45.46777 | 8.82742 | 2982 ft | 194 kts | 296° |
| 2026-05-08 18:20 | 45.47429 | 8.81162 | 2981 ft | 179 kts | 303° |
| 2026-05-08 18:20 | 45.48106 | 8.79683 | 2990 ft | 176 kts | 303° |
| 2026-05-08 18:21 | 45.48781 | 8.78222 | 2982 ft | 177 kts | 304° |
| 2026-05-08 18:21 | 45.49675 | 8.77076 | 2963 ft | 175 kts | 344° |
| 2026-05-08 18:21 | 45.50894 | 8.76772 | 2819 ft | 185 kts | 348° |
| 2026-05-08 18:21 | 45.52142 | 8.76394 | 2592 ft | 183 kts | 348° |
| 2026-05-08 18:22 | 45.53381 | 8.76037 | 2360 ft | 180 kts | 348° |
| 2026-05-08 18:22 | 45.54600 | 8.75697 | 2120 ft | 177 kts | 348° |
| 2026-05-08 18:22 | 45.55798 | 8.75364 | 1883 ft | 173 kts | 348° |
| 2026-05-08 18:22 | 45.56972 | 8.75035 | 1662 ft | 168 kts | 348° |
| 2026-05-08 18:23 | 45.58079 | 8.74719 | 1483 ft | 157 kts | 348° |
| 2026-05-08 18:23 | 45.59158 | 8.74420 | 1228 ft | 159 kts | 349° |
| 2026-05-08 18:23 | 45.60233 | 8.74128 | 1019 ft | 157 kts | 348° |
| 2026-05-08 18:23 | 45.61294 | 8.73829 | 835 ft | 156 kts | 349° |
| 2026-05-08 18:24 | 45.62353 | 8.73535 | 742 ft | 144 kts | 349° |
| 2026-05-08 18:24 | 45.63134 | 8.73319 | 735 ft | 95 kts | 349° |
| 2026-05-08 18:24 | 45.63611 | 8.73167 | 741 ft | 49 kts | 336° |
| 2026-05-08 18:24 | 45.63829 | 8.72884 | 740 ft | 37 kts | 303° |
| 2026-05-08 18:25 | 45.63918 | 8.72617 | 738 ft | 21 kts | 243° |
| 2026-05-08 18:25 | 45.63798 | 8.72609 | 738 ft | 20 kts | 169° |
| 2026-05-08 18:25 | 45.63701 | 8.72637 | 738 ft | 23 kts | 168° |
| 2026-05-08 18:25 | 45.63543 | 8.72679 | 740 ft | 23 kts | 169° |
| 2026-05-08 18:26 | 45.63381 | 8.72662 | 740 ft | 25 kts | 211° |
| 2026-05-08 18:26 | 45.63221 | 8.72510 | 740 ft | 28 kts | 214° |
| 2026-05-08 18:26 | 45.63070 | 8.72354 | 742 ft | 26 kts | 227° |
| 2026-05-08 18:26 | 45.63014 | 8.72118 | 739 ft | 25 kts | 259° |
| 2026-05-08 18:27 | 45.62991 | 8.71951 | 740 ft | 13 kts | 258° |
| 2026-05-08 18:27 | 45.62980 | 8.71869 | 740 ft | 13 kts | 259° |
| 2026-05-08 18:27 | 45.62959 | 8.71707 | 740 ft | 12 kts | 259° |
| 2026-05-08 18:27 | 45.62943 | 8.71590 | 740 ft | 12 kts | 259° |
| 2026-05-08 18:28 | 45.62933 | 8.71508 | 740 ft | 4 kts | 265° |
| 2026-05-08 18:28 | 45.62952 | 8.71488 | 740 ft | 5 kts | 351° |
| 2026-05-08 18:28 | 45.62994 | 8.71478 | 740 ft | 7 kts | 349° |
| 2026-05-08 18:28 | 45.63010 | 8.71474 | 740 ft | 0 kts | 349° |